sensor_id;sensor_type;location;lat;lon;timestamp;pressure;altitude;pressure_sealevel;temperature;humidity
41264;BME280;26998;48.714;9.414;2022-11-12T00:00:52;100641.84;;;2.60;100.00
41264;BME280;26998;48.714;9.414;2022-11-12T00:03:20;100641.53;;;2.64;100.00
41264;BME280;26998;48.714;9.414;2022-11-12T00:05:47;100636.38;;;2.63;100.00
41264;BME280;26998;48.714;9.414;2022-11-12T00:08:14;100635.59;;;2.61;100.00
41264;BME280;26998;48.714;9.414;2022-11-12T00:10:40;100642.59;;;2.62;100.00
41264;BME280;26998;48.714;9.414;2022-11-12T00:13:07;100642.38;;;2.65;100.00
41264;BME280;26998;48.714;9.414;2022-11-12T00:15:33;100638.16;;;2.62;100.00
41264;BME280;26998;48.714;9.414;2022-11-12T00:18:00;100637.00;;;2.66;100.00
41264;BME280;26998;48.714;9.414;2022-11-12T00:20:26;100638.88;;;2.64;100.00
41264;BME280;26998;48.714;9.414;2022-11-12T00:22:53;100640.59;;;2.65;100.00
41264;BME280;26998;48.714;9.414;2022-11-12T00:25:20;100635.19;;;2.67;100.00
41264;BME280;26998;48.714;9.414;2022-11-12T00:27:46;100636.78;;;2.69;100.00
41264;BME280;26998;48.714;9.414;2022-11-12T00:30:13;100632.66;;;2.65;100.00
41264;BME280;26998;48.714;9.414;2022-11-12T00:32:39;100636.13;;;2.53;100.00
41264;BME280;26998;48.714;9.414;2022-11-12T00:35:07;100626.91;;;2.46;100.00
41264;BME280;26998;48.714;9.414;2022-11-12T00:37:39;100632.50;;;2.28;100.00
41264;BME280;26998;48.714;9.414;2022-11-12T00:40:06;100620.66;;;2.21;100.00
41264;BME280;26998;48.714;9.414;2022-11-12T00:42:32;100618.50;;;2.14;100.00
41264;BME280;26998;48.714;9.414;2022-11-12T00:44:59;100609.13;;;2.10;100.00
41264;BME280;26998;48.714;9.414;2022-11-12T00:47:26;100617.13;;;2.08;100.00
41264;BME280;26998;48.714;9.414;2022-11-12T00:49:52;100615.06;;;1.99;100.00
41264;BME280;26998;48.714;9.414;2022-11-12T00:52:19;100629.16;;;1.85;100.00
41264;BME280;26998;48.714;9.414;2022-11-12T00:54:45;100634.19;;;1.75;100.00
41264;BME280;26998;48.714;9.414;2022-11-12T00:57:12;100628.34;;;1.70;100.00
41264;BME280;26998;48.714;9.414;2022-11-12T00:59:38;100629.31;;;1.69;100.00
41264;BME280;26998;48.714;9.414;2022-11-12T01:02:05;100628.56;;;1.67;100.00
41264;BME280;26998;48.714;9.414;2022-11-12T01:04:31;100626.09;;;1.64;100.00
41264;BME280;26998;48.714;9.414;2022-11-12T01:06:58;100630.66;;;1.62;100.00
41264;BME280;26998;48.714;9.414;2022-11-12T01:09:25;100627.25;;;1.60;100.00
41264;BME280;26998;48.714;9.414;2022-11-12T01:11:51;100623.97;;;1.56;100.00
41264;BME280;26998;48.714;9.414;2022-11-12T01:14:18;100618.31;;;1.63;100.00
41264;BME280;26998;48.714;9.414;2022-11-12T01:16:44;100624.63;;;1.60;100.00
41264;BME280;26998;48.714;9.414;2022-11-12T01:19:11;100623.78;;;1.59;100.00
41264;BME280;26998;48.714;9.414;2022-11-12T01:21:41;100629.13;;;1.72;100.00
41264;BME280;26998;48.714;9.414;2022-11-12T01:24:08;100619.91;;;1.92;100.00
41264;BME280;26998;48.714;9.414;2022-11-12T01:26:36;100623.75;;;2.01;100.00
41264;BME280;26998;48.714;9.414;2022-11-12T01:29:03;100621.16;;;2.14;100.00
41264;BME280;26998;48.714;9.414;2022-11-12T01:31:34;100628.66;;;2.20;100.00
41264;BME280;26998;48.714;9.414;2022-11-12T01:34:07;100628.25;;;2.26;100.00
41264;BME280;26998;48.714;9.414;2022-11-12T01:36:37;100619.81;;;2.34;100.00
41264;BME280;26998;48.714;9.414;2022-11-12T01:39:05;100603.06;;;2.35;100.00
41264;BME280;26998;48.714;9.414;2022-11-12T01:41:33;100597.78;;;2.35;100.00
41264;BME280;26998;48.714;9.414;2022-11-12T01:44:15;100594.72;;;2.28;100.00
41264;BME280;26998;48.714;9.414;2022-11-12T01:49:29;100590.56;;;2.24;100.00
41264;BME280;26998;48.714;9.414;2022-11-12T01:52:05;100587.50;;;2.17;100.00
41264;BME280;26998;48.714;9.414;2022-11-12T01:54:35;100584.44;;;2.23;100.00
41264;BME280;26998;48.714;9.414;2022-11-12T01:57:02;100577.09;;;2.28;100.00
41264;BME280;26998;48.714;9.414;2022-11-12T01:59:33;100573.28;;;2.33;100.00
41264;BME280;26998;48.714;9.414;2022-11-12T02:02:03;100574.47;;;2.41;100.00
41264;BME280;26998;48.714;9.414;2022-11-12T02:04:31;100558.09;;;2.36;100.00
41264;BME280;26998;48.714;9.414;2022-11-12T02:06:59;100548.38;;;2.37;100.00
41264;BME280;26998;48.714;9.414;2022-11-12T02:09:28;100548.81;;;2.43;100.00
41264;BME280;26998;48.714;9.414;2022-11-12T02:11:55;100550.19;;;2.49;100.00
41264;BME280;26998;48.714;9.414;2022-11-12T02:14:21;100547.13;;;2.55;100.00
41264;BME280;26998;48.714;9.414;2022-11-12T02:16:48;100543.34;;;2.59;100.00
41264;BME280;26998;48.714;9.414;2022-11-12T02:19:16;100546.81;;;2.47;100.00
41264;BME280;26998;48.714;9.414;2022-11-12T02:21:42;100544.38;;;2.44;100.00
41264;BME280;26998;48.714;9.414;2022-11-12T02:26:45;100527.69;;;2.30;100.00
41264;BME280;26998;48.714;9.414;2022-11-12T02:29:12;100527.06;;;2.40;100.00
41264;BME280;26998;48.714;9.414;2022-11-12T02:31:39;100518.91;;;2.30;100.00
41264;BME280;26998;48.714;9.414;2022-11-12T02:34:05;100524.81;;;2.34;100.00
41264;BME280;26998;48.714;9.414;2022-11-12T02:36:32;100525.69;;;2.34;100.00
41264;BME280;26998;48.714;9.414;2022-11-12T02:38:58;100516.19;;;2.31;100.00
41264;BME280;26998;48.714;9.414;2022-11-12T02:41:25;100523.50;;;2.41;100.00
41264;BME280;26998;48.714;9.414;2022-11-12T02:43:51;100525.69;;;2.34;100.00
41264;BME280;26998;48.714;9.414;2022-11-12T02:46:18;100532.94;;;2.30;100.00
41264;BME280;26998;48.714;9.414;2022-11-12T02:48:45;100532.66;;;2.22;100.00
41264;BME280;26998;48.714;9.414;2022-11-12T02:51:11;100533.81;;;2.18;100.00
41264;BME280;26998;48.714;9.414;2022-11-12T02:53:38;100528.81;;;2.14;100.00
41264;BME280;26998;48.714;9.414;2022-11-12T02:56:04;100523.13;;;2.07;100.00
41264;BME280;26998;48.714;9.414;2022-11-12T02:58:31;100527.44;;;2.08;100.00
41264;BME280;26998;48.714;9.414;2022-11-12T03:00:58;100524.81;;;2.08;100.00
41264;BME280;26998;48.714;9.414;2022-11-12T03:03:24;100519.31;;;2.11;100.00
41264;BME280;26998;48.714;9.414;2022-11-12T03:05:59;100519.25;;;2.13;100.00
41264;BME280;26998;48.714;9.414;2022-11-12T03:08:26;100521.31;;;2.07;100.00
41264;BME280;26998;48.714;9.414;2022-11-12T03:10:53;100517.31;;;2.02;100.00
41264;BME280;26998;48.714;9.414;2022-11-12T03:13:20;100516.88;;;2.08;100.00
41264;BME280;26998;48.714;9.414;2022-11-12T03:15:46;100521.25;;;2.09;100.00
41264;BME280;26998;48.714;9.414;2022-11-12T03:18:13;100515.97;;;2.09;100.00
41264;BME280;26998;48.714;9.414;2022-11-12T03:20:39;100515.09;;;2.08;100.00
41264;BME280;26998;48.714;9.414;2022-11-12T03:23:08;100507.94;;;2.11;100.00
41264;BME280;26998;48.714;9.414;2022-11-12T03:25:36;100502.66;;;2.11;100.00
41264;BME280;26998;48.714;9.414;2022-11-12T03:28:07;100500.75;;;2.00;100.00
41264;BME280;26998;48.714;9.414;2022-11-12T03:30:36;100498.63;;;2.05;100.00
41264;BME280;26998;48.714;9.414;2022-11-12T03:33:04;100501.38;;;2.03;100.00
41264;BME280;26998;48.714;9.414;2022-11-12T03:35:31;100492.72;;;2.01;100.00
41264;BME280;26998;48.714;9.414;2022-11-12T03:37:58;100497.78;;;2.04;100.00
41264;BME280;26998;48.714;9.414;2022-11-12T03:40:25;100501.28;;;2.05;100.00
41264;BME280;26998;48.714;9.414;2022-11-12T03:42:52;100505.50;;;2.07;100.00
41264;BME280;26998;48.714;9.414;2022-11-12T03:45:20;100507.94;;;2.11;100.00
41264;BME280;26998;48.714;9.414;2022-11-12T03:47:49;100516.19;;;2.19;100.00
41264;BME280;26998;48.714;9.414;2022-11-12T03:50:17;100523.56;;;2.26;100.00
41264;BME280;26998;48.714;9.414;2022-11-12T03:52:46;100515.66;;;2.26;100.00
41264;BME280;26998;48.714;9.414;2022-11-12T03:55:14;100513.44;;;2.33;100.00
41264;BME280;26998;48.714;9.414;2022-11-12T03:57:41;100508.78;;;2.37;100.00
41264;BME280;26998;48.714;9.414;2022-11-12T04:00:09;100507.94;;;2.36;100.00
41264;BME280;26998;48.714;9.414;2022-11-12T04:02:36;100510.38;;;2.39;100.00
41264;BME280;26998;48.714;9.414;2022-11-12T04:05:05;100522.41;;;2.30;100.00
41264;BME280;26998;48.714;9.414;2022-11-12T04:07:31;100516.50;;;2.27;100.00
41264;BME280;26998;48.714;9.414;2022-11-12T04:09:59;100514.81;;;2.39;100.00
41264;BME280;26998;48.714;9.414;2022-11-12T04:12:25;100514.47;;;2.30;100.00
41264;BME280;26998;48.714;9.414;2022-11-12T04:14:52;100514.47;;;2.30;100.00
41264;BME280;26998;48.714;9.414;2022-11-12T04:17:18;100512.59;;;2.33;100.00
41264;BME280;26998;48.714;9.414;2022-11-12T04:19:45;100519.56;;;2.34;100.00
41264;BME280;26998;48.714;9.414;2022-11-12T04:22:11;100506.91;;;2.39;100.00
41264;BME280;26998;48.714;9.414;2022-11-12T04:24:39;100508.06;;;2.47;100.00
41264;BME280;26998;48.714;9.414;2022-11-12T04:27:08;100502.59;;;2.50;100.00
41264;BME280;26998;48.714;9.414;2022-11-12T04:29:35;100498.69;;;2.43;100.00
41264;BME280;26998;48.714;9.414;2022-11-12T04:32:03;100498.78;;;2.42;100.00
41264;BME280;26998;48.714;9.414;2022-11-12T04:34:29;100492.03;;;2.38;100.00
41264;BME280;26998;48.714;9.414;2022-11-12T04:36:56;100493.16;;;2.34;100.00
41264;BME280;26998;48.714;9.414;2022-11-12T04:39:22;100496.00;;;2.30;100.00
41264;BME280;26998;48.714;9.414;2022-11-12T04:41:49;100503.63;;;2.35;100.00
41264;BME280;26998;48.714;9.414;2022-11-12T04:44:15;100497.59;;;2.33;100.00
41264;BME280;26998;48.714;9.414;2022-11-12T04:46:41;100509.66;;;2.37;100.00
41264;BME280;26998;48.714;9.414;2022-11-12T04:49:08;100506.06;;;2.38;100.00
41264;BME280;26998;48.714;9.414;2022-11-12T04:51:34;100505.72;;;2.43;100.00
41264;BME280;26998;48.714;9.414;2022-11-12T04:54:01;100506.41;;;2.46;100.00
41264;BME280;26998;48.714;9.414;2022-11-12T04:56:27;100510.81;;;2.46;100.00
41264;BME280;26998;48.714;9.414;2022-11-12T04:58:53;100511.34;;;2.51;100.00
41264;BME280;26998;48.714;9.414;2022-11-12T05:01:20;100516.94;;;2.46;100.00
41264;BME280;26998;48.714;9.414;2022-11-12T05:03:47;100509.88;;;2.47;100.00
41264;BME280;26998;48.714;9.414;2022-11-12T05:06:13;100513.34;;;2.47;100.00
41264;BME280;26998;48.714;9.414;2022-11-12T05:08:40;100513.13;;;2.50;100.00
41264;BME280;26998;48.714;9.414;2022-11-12T05:11:06;100507.94;;;2.49;100.00
41264;BME280;26998;48.714;9.414;2022-11-12T05:13:38;100517.25;;;2.54;100.00
41264;BME280;26998;48.714;9.414;2022-11-12T05:16:04;100518.22;;;2.53;100.00
41264;BME280;26998;48.714;9.414;2022-11-12T05:18:31;100516.63;;;2.51;100.00
41264;BME280;26998;48.714;9.414;2022-11-12T05:20:57;100521.91;;;2.51;100.00
41264;BME280;26998;48.714;9.414;2022-11-12T05:23:24;100516.41;;;2.41;100.00
41264;BME280;26998;48.714;9.414;2022-11-12T05:25:50;100505.66;;;2.31;100.00
41264;BME280;26998;48.714;9.414;2022-11-12T05:28:17;100516.50;;;2.27;100.00
41264;BME280;26998;48.714;9.414;2022-11-12T05:30:46;100518.06;;;2.17;100.00
41264;BME280;26998;48.714;9.414;2022-11-12T05:33:13;100513.97;;;2.13;100.00
41264;BME280;26998;48.714;9.414;2022-11-12T05:35:40;100516.81;;;2.10;100.00
41264;BME280;26998;48.714;9.414;2022-11-12T05:38:06;100517.00;;;2.06;100.00
41264;BME280;26998;48.714;9.414;2022-11-12T05:40:33;100526.06;;;2.02;100.00
41264;BME280;26998;48.714;9.414;2022-11-12T05:43:00;100517.63;;;1.97;100.00
41264;BME280;26998;48.714;9.414;2022-11-12T05:45:26;100523.84;;;1.96;100.00
41264;BME280;26998;48.714;9.414;2022-11-12T05:47:53;100513.31;;;1.96;100.00
41264;BME280;26998;48.714;9.414;2022-11-12T05:50:19;100521.44;;;2.06;100.00
41264;BME280;26998;48.714;9.414;2022-11-12T05:52:46;100532.41;;;2.00;100.00
41264;BME280;26998;48.714;9.414;2022-11-12T05:55:13;100532.69;;;1.95;100.00
41264;BME280;26998;48.714;9.414;2022-11-12T05:57:39;100535.97;;;1.99;100.00
41264;BME280;26998;48.714;9.414;2022-11-12T06:00:06;100529.44;;;2.04;100.00
41264;BME280;26998;48.714;9.414;2022-11-12T06:02:33;100532.91;;;2.05;100.00
41264;BME280;26998;48.714;9.414;2022-11-12T06:04:59;100538.31;;;2.03;100.00
41264;BME280;26998;48.714;9.414;2022-11-12T06:07:26;100538.50;;;2.00;100.00
41264;BME280;26998;48.714;9.414;2022-11-12T06:09:52;100539.69;;;1.96;100.00
41264;BME280;26998;48.714;9.414;2022-11-12T06:12:19;100554.63;;;1.96;100.00
41264;BME280;26998;48.714;9.414;2022-11-12T06:14:45;100554.63;;;1.96;100.00
41264;BME280;26998;48.714;9.414;2022-11-12T06:17:12;100568.38;;;2.01;100.00
41264;BME280;26998;48.714;9.414;2022-11-12T06:19:38;100562.44;;;1.97;100.00
41264;BME280;26998;48.714;9.414;2022-11-12T06:22:05;100564.88;;;2.00;100.00
41264;BME280;26998;48.714;9.414;2022-11-12T06:24:31;100568.44;;;1.99;100.00
41264;BME280;26998;48.714;9.414;2022-11-12T06:27:01;100565.72;;;2.01;100.00
41264;BME280;26998;48.714;9.414;2022-11-12T06:29:27;100554.13;;;2.03;100.00
41264;BME280;26998;48.714;9.414;2022-11-12T06:31:55;100557.28;;;2.08;100.00
41264;BME280;26998;48.714;9.414;2022-11-12T06:34:21;100559.84;;;2.10;100.00
41264;BME280;26998;48.714;9.414;2022-11-12T06:36:47;100569.56;;;2.10;100.00
41264;BME280;26998;48.714;9.414;2022-11-12T06:39:14;100559.22;;;2.06;100.00
41264;BME280;26998;48.714;9.414;2022-11-12T06:41:40;100560.13;;;2.05;100.00
41264;BME280;26998;48.714;9.414;2022-11-12T06:44:07;100557.41;;;2.07;100.00
41264;BME280;26998;48.714;9.414;2022-11-12T06:46:33;100564.38;;;2.08;100.00
41264;BME280;26998;48.714;9.414;2022-11-12T06:48:59;100559.09;;;2.08;100.00
41264;BME280;26998;48.714;9.414;2022-11-12T06:51:26;100564.91;;;2.13;100.00
41264;BME280;26998;48.714;9.414;2022-11-12T06:53:52;100558.47;;;2.17;100.00
41264;BME280;26998;48.714;9.414;2022-11-12T06:56:21;100567.69;;;2.24;100.00
41264;BME280;26998;48.714;9.414;2022-11-12T06:58:47;100565.56;;;2.29;100.00
41264;BME280;26998;48.714;9.414;2022-11-12T07:01:15;100552.94;;;2.35;100.00
41264;BME280;26998;48.714;9.414;2022-11-12T07:03:43;100557.16;;;2.24;100.00
41264;BME280;26998;48.714;9.414;2022-11-12T07:06:14;100553.53;;;2.25;100.00
41264;BME280;26998;48.714;9.414;2022-11-12T07:08:41;100550.06;;;2.25;100.00
41264;BME280;26998;48.714;9.414;2022-11-12T07:11:08;100557.34;;;2.21;100.00
41264;BME280;26998;48.714;9.414;2022-11-12T07:13:35;100558.59;;;2.16;100.00
41264;BME280;26998;48.714;9.414;2022-11-12T07:16:04;100559.63;;;2.13;100.00
41264;BME280;26998;48.714;9.414;2022-11-12T07:18:32;100555.84;;;2.17;100.00
41264;BME280;26998;48.714;9.414;2022-11-12T07:21:00;100559.56;;;2.27;100.00
41264;BME280;26998;48.714;9.414;2022-11-12T07:23:30;100555.56;;;2.35;100.00
41264;BME280;26998;48.714;9.414;2022-11-12T07:26:01;100566.31;;;2.31;100.00
41264;BME280;26998;48.714;9.414;2022-11-12T07:28:28;100560.50;;;2.39;100.00
41264;BME280;26998;48.714;9.414;2022-11-12T07:30:57;100558.84;;;2.51;100.00
41264;BME280;26998;48.714;9.414;2022-11-12T07:33:24;100559.59;;;2.53;100.00
41264;BME280;26998;48.714;9.414;2022-11-12T07:38:26;100558.34;;;2.71;100.00
41264;BME280;26998;48.714;9.414;2022-11-12T07:43:29;100556.84;;;2.93;100.00
41264;BME280;26998;48.714;9.414;2022-11-12T07:46:07;100561.59;;;2.88;100.00
41264;BME280;26998;48.714;9.414;2022-11-12T07:48:37;100571.94;;;2.91;100.00
41264;BME280;26998;48.714;9.414;2022-11-12T07:53:34;100585.16;;;2.78;100.00
41264;BME280;26998;48.714;9.414;2022-11-12T07:56:01;100598.44;;;2.64;100.00
41264;BME280;26998;48.714;9.414;2022-11-12T07:58:30;100598.16;;;2.68;100.00
41264;BME280;26998;48.714;9.414;2022-11-12T08:00:57;100595.38;;;2.83;100.00
41264;BME280;26998;48.714;9.414;2022-11-12T08:03:24;100595.16;;;2.98;100.00
41264;BME280;26998;48.714;9.414;2022-11-12T08:05:50;100594.00;;;3.15;100.00
41264;BME280;26998;48.714;9.414;2022-11-12T08:08:17;100597.25;;;3.32;100.00
41264;BME280;26998;48.714;9.414;2022-11-12T08:10:43;100593.50;;;3.47;100.00
41264;BME280;26998;48.714;9.414;2022-11-12T08:13:09;100608.00;;;3.41;100.00
41264;BME280;26998;48.714;9.414;2022-11-12T08:15:36;100599.63;;;3.47;100.00
41264;BME280;26998;48.714;9.414;2022-11-12T08:18:03;100616.13;;;3.51;100.00
41264;BME280;26998;48.714;9.414;2022-11-12T08:20:29;100624.78;;;3.53;100.00
41264;BME280;26998;48.714;9.414;2022-11-12T08:22:58;100646.28;;;3.36;100.00
41264;BME280;26998;48.714;9.414;2022-11-12T08:25:25;100641.19;;;3.45;100.00
41264;BME280;26998;48.714;9.414;2022-11-12T08:27:55;100639.50;;;3.44;100.00
41264;BME280;26998;48.714;9.414;2022-11-12T08:30:21;100643.53;;;3.37;100.00
41264;BME280;26998;48.714;9.414;2022-11-12T08:32:57;100642.66;;;3.62;100.00
41264;BME280;26998;48.714;9.414;2022-11-12T08:35:25;100651.91;;;3.81;100.00
41264;BME280;26998;48.714;9.414;2022-11-12T08:37:59;100653.19;;;3.75;100.00
41264;BME280;26998;48.714;9.414;2022-11-12T08:40:27;100662.72;;;3.78;100.00
41264;BME280;26998;48.714;9.414;2022-11-12T08:45:23;100683.78;;;3.66;100.00
41264;BME280;26998;48.714;9.414;2022-11-12T08:47:50;100685.84;;;3.87;100.00
41264;BME280;26998;48.714;9.414;2022-11-12T08:50:17;100687.00;;;3.83;100.00
41264;BME280;26998;48.714;9.414;2022-11-12T08:52:44;100690.69;;;3.93;100.00
41264;BME280;26998;48.714;9.414;2022-11-12T08:55:10;100700.31;;;3.94;100.00
41264;BME280;26998;48.714;9.414;2022-11-12T08:57:43;100709.34;;;4.15;100.00
41264;BME280;26998;48.714;9.414;2022-11-12T09:00:11;100724.66;;;3.99;100.00
41264;BME280;26998;48.714;9.414;2022-11-12T09:02:38;100731.31;;;3.92;100.00
41264;BME280;26998;48.714;9.414;2022-11-12T09:05:04;100736.06;;;4.00;100.00
41264;BME280;26998;48.714;9.414;2022-11-12T09:07:31;100735.81;;;4.15;100.00
41264;BME280;26998;48.714;9.414;2022-11-12T09:10:15;100731.19;;;4.06;100.00
41264;BME280;26998;48.714;9.414;2022-11-12T09:12:42;100737.66;;;4.02;100.00
41264;BME280;26998;48.714;9.414;2022-11-12T09:15:09;100730.13;;;4.09;100.00
41264;BME280;26998;48.714;9.414;2022-11-12T09:17:57;100732.81;;;4.20;100.00
41264;BME280;26998;48.714;9.414;2022-11-12T09:20:25;100739.81;;;4.21;100.00
41264;BME280;26998;48.714;9.414;2022-11-12T09:22:52;100745.13;;;4.21;100.00
41264;BME280;26998;48.714;9.414;2022-11-12T09:25:18;100746.22;;;4.30;100.00
41264;BME280;26998;48.714;9.414;2022-11-12T09:27:45;100745.53;;;4.28;100.00
41264;BME280;26998;48.714;9.414;2022-11-12T09:30:14;100740.94;;;4.54;100.00
41264;BME280;26998;48.714;9.414;2022-11-12T09:32:41;100751.03;;;4.73;100.00
41264;BME280;26998;48.714;9.414;2022-11-12T09:35:07;100756.25;;;4.85;100.00
41264;BME280;26998;48.714;9.414;2022-11-12T09:37:38;100759.03;;;4.84;100.00
41264;BME280;26998;48.714;9.414;2022-11-12T09:40:06;100769.41;;;4.87;100.00
41264;BME280;26998;48.714;9.414;2022-11-12T09:42:44;100757.63;;;4.67;100.00
41264;BME280;26998;48.714;9.414;2022-11-12T09:45:19;100754.41;;;4.75;100.00
41264;BME280;26998;48.714;9.414;2022-11-12T09:47:53;100744.44;;;4.78;100.00
41264;BME280;26998;48.714;9.414;2022-11-12T09:50:33;100738.22;;;4.91;100.00
41264;BME280;26998;48.714;9.414;2022-11-12T09:53:15;100728.47;;;4.91;100.00
41264;BME280;26998;48.714;9.414;2022-11-12T09:55:47;100712.13;;;5.08;100.00
41264;BME280;26998;48.714;9.414;2022-11-12T09:58:14;100354.38;;;4.97;100.00
41264;BME280;26998;48.714;9.414;2022-11-12T10:03:37;100344.59;;;5.09;100.00
41264;BME280;26998;48.714;9.414;2022-11-12T10:06:11;100340.28;;;5.08;100.00
41264;BME280;26998;48.714;9.414;2022-11-12T10:08:56;100336.06;;;5.26;100.00
41264;BME280;26998;48.714;9.414;2022-11-12T10:11:35;100338.97;;;5.76;100.00
41264;BME280;26998;48.714;9.414;2022-11-12T10:14:17;100329.44;;;5.95;100.00
41264;BME280;26998;48.714;9.414;2022-11-12T10:16:56;100329.03;;;5.78;100.00
41264;BME280;26998;48.714;9.414;2022-11-12T10:22:54;100298.34;;;6.66;100.00
41264;BME280;26998;48.714;9.414;2022-11-12T10:25:23;100304.41;;;6.98;100.00
41264;BME280;26998;48.714;9.414;2022-11-12T10:27:53;100292.34;;;7.52;100.00
41264;BME280;26998;48.714;9.414;2022-11-12T10:30:22;100288.66;;;7.62;100.00
41264;BME280;26998;48.714;9.414;2022-11-12T10:32:50;100287.59;;;7.46;100.00
41264;BME280;26998;48.714;9.414;2022-11-12T10:35:20;100288.41;;;7.56;100.00
41264;BME280;26998;48.714;9.414;2022-11-12T10:38:03;100282.91;;;7.77;100.00
41264;BME280;26998;48.714;9.414;2022-11-12T10:40:35;100280.22;;;8.14;100.00
41264;BME280;26998;48.714;9.414;2022-11-12T10:45:43;100278.81;;;7.82;100.00
41264;BME280;26998;48.714;9.414;2022-11-12T10:50:53;100270.94;;;8.18;100.00
41264;BME280;26998;48.714;9.414;2022-11-12T10:53:37;100264.00;;;8.35;100.00
41264;BME280;26998;48.714;9.414;2022-11-12T10:56:23;100264.22;;;8.69;100.00
41264;BME280;26998;48.714;9.414;2022-11-12T10:59:16;100262.78;;;9.11;100.00
41264;BME280;26998;48.714;9.414;2022-11-12T11:01:44;100257.13;;;8.78;100.00
41264;BME280;26998;48.714;9.414;2022-11-12T11:04:31;100256.22;;;8.87;100.00
41264;BME280;26998;48.714;9.414;2022-11-12T11:07:05;100255.06;;;8.90;100.00
41264;BME280;26998;48.714;9.414;2022-11-12T11:09:33;100250.81;;;8.61;100.00
41264;BME280;26998;48.714;9.414;2022-11-12T11:11:59;100249.88;;;8.25;100.00
41264;BME280;26998;48.714;9.414;2022-11-12T11:14:29;100247.28;;;8.15;100.00
41264;BME280;26998;48.714;9.414;2022-11-12T11:17:04;100245.09;;;8.56;100.00
41264;BME280;26998;48.714;9.414;2022-11-12T11:19:35;100250.06;;;8.87;100.00
41264;BME280;26998;48.714;9.414;2022-11-12T11:22:08;100244.31;;;8.99;100.00
41264;BME280;26998;48.714;9.414;2022-11-12T11:24:53;100236.94;;;8.93;100.00
41264;BME280;26998;48.714;9.414;2022-11-12T11:27:41;100242.38;;;9.28;100.00
41264;BME280;26998;48.714;9.414;2022-11-12T11:43:54;100219.28;;;9.36;100.00
41264;BME280;26998;48.714;9.414;2022-11-12T11:46:44;100216.41;;;9.30;100.00
41264;BME280;26998;48.714;9.414;2022-11-12T11:49:34;100212.31;;;9.17;100.00
41264;BME280;26998;48.714;9.414;2022-11-12T11:55:23;100205.72;;;9.30;100.00
41264;BME280;26998;48.714;9.414;2022-11-12T11:58:08;100197.34;;;9.51;100.00
41264;BME280;26998;48.714;9.414;2022-11-12T12:00:54;100195.22;;;9.62;100.00
41264;BME280;26998;48.714;9.414;2022-11-12T12:03:53;100190.31;;;9.76;100.00
41264;BME280;26998;48.714;9.414;2022-11-12T12:06:27;100195.97;;;9.73;100.00
41264;BME280;26998;48.714;9.414;2022-11-12T12:20:34;100186.25;;;9.71;100.00
41264;BME280;26998;48.714;9.414;2022-11-12T12:23:21;100193.00;;;9.84;100.00
41264;BME280;26998;48.714;9.414;2022-11-12T12:25:51;100186.03;;;9.91;100.00
41264;BME280;26998;48.714;9.414;2022-11-12T12:28:39;100182.28;;;9.76;100.00
41264;BME280;26998;48.714;9.414;2022-11-12T12:31:12;100175.00;;;9.86;100.00
41264;BME280;26998;48.714;9.414;2022-11-12T12:33:50;100166.38;;;10.00;100.00
41264;BME280;26998;48.714;9.414;2022-11-12T12:36:28;100167.47;;;9.81;100.00
41264;BME280;26998;48.714;9.414;2022-11-12T12:39:12;100163.88;;;10.15;100.00
41264;BME280;26998;48.714;9.414;2022-11-12T12:41:50;100155.97;;;9.89;100.00
41264;BME280;26998;48.714;9.414;2022-11-12T12:44:20;100155.50;;;10.02;100.00
41264;BME280;26998;48.714;9.414;2022-11-12T12:46:56;100153.13;;;10.49;100.00
41264;BME280;26998;48.714;9.414;2022-11-12T12:49:30;100145.97;;;10.66;100.00
41264;BME280;26998;48.714;9.414;2022-11-12T12:51:59;100142.09;;;10.44;100.00
41264;BME280;26998;48.714;9.414;2022-11-12T12:57:04;100135.59;;;10.47;100.00
41264;BME280;26998;48.714;9.414;2022-11-12T13:02:46;100136.25;;;10.90;100.00
41264;BME280;26998;48.714;9.414;2022-11-12T13:05:23;100130.09;;;10.56;100.00
41264;BME280;26998;48.714;9.414;2022-11-12T13:07:51;100125.06;;;10.61;100.00
41264;BME280;26998;48.714;9.414;2022-11-12T13:15:49;100126.72;;;10.95;100.00
41264;BME280;26998;48.714;9.414;2022-11-12T13:21:20;100127.91;;;10.68;100.00
41264;BME280;26998;48.714;9.414;2022-11-12T13:23:57;100128.41;;;10.72;100.00
41264;BME280;26998;48.714;9.414;2022-11-12T13:26:48;100124.06;;;10.54;100.00
41264;BME280;26998;48.714;9.414;2022-11-12T13:29:22;100120.72;;;10.60;100.00
41264;BME280;26998;48.714;9.414;2022-11-12T13:31:49;100122.41;;;10.70;100.00
41264;BME280;26998;48.714;9.414;2022-11-12T13:34:35;100122.22;;;10.71;100.00
41264;BME280;26998;48.714;9.414;2022-11-12T13:37:04;100116.34;;;10.84;100.00
41264;BME280;26998;48.714;9.414;2022-11-12T13:39:34;100119.03;;;10.92;100.00
41264;BME280;26998;48.714;9.414;2022-11-12T13:42:10;100120.69;;;10.93;100.00
41264;BME280;26998;48.714;9.414;2022-11-12T13:44:38;100120.69;;;10.93;100.00
41264;BME280;26998;48.714;9.414;2022-11-12T13:47:11;100121.72;;;10.76;100.00
41264;BME280;26998;48.714;9.414;2022-11-12T13:49:42;100113.84;;;10.50;100.00
41264;BME280;26998;48.714;9.414;2022-11-12T13:52:14;100110.38;;;10.57;100.00
41264;BME280;26998;48.714;9.414;2022-11-12T13:54:40;100119.72;;;10.61;100.00
41264;BME280;26998;48.714;9.414;2022-11-12T13:57:23;100118.06;;;10.69;100.00
41264;BME280;26998;48.714;9.414;2022-11-12T14:02:48;100114.88;;;10.57;100.00
41264;BME280;26998;48.714;9.414;2022-11-12T14:05:17;100110.19;;;10.67;100.00
41264;BME280;26998;48.714;9.414;2022-11-12T14:07:51;100105.50;;;10.61;100.00
41264;BME280;26998;48.714;9.414;2022-11-12T14:10:36;100110.50;;;10.56;100.00
41264;BME280;26998;48.714;9.414;2022-11-12T14:13:24;100109.38;;;10.50;100.00